createdAt,value
2023-05-13T00:01:09.338Z,8.00
2023-05-13T00:06:11.152Z,8.70
2023-05-13T00:11:12.981Z,9.10
2023-05-13T00:16:14.940Z,16.30
2023-05-13T00:21:16.936Z,17.90
2023-05-13T00:26:18.817Z,16.60
2023-05-13T00:31:20.542Z,12.40
2023-05-13T00:36:22.263Z,10.70
2023-05-13T00:41:24.145Z,12.40
2023-05-13T00:46:33.270Z,13.50
2023-05-13T00:51:36.099Z,14.30
2023-05-13T00:56:38.676Z,13.50
2023-05-13T01:02:17.780Z,9.90
2023-05-13T01:07:28.614Z,9.50
2023-05-13T01:12:38.272Z,11.00
2023-05-13T01:18:01.906Z,7.90
2023-05-13T01:23:04.093Z,12.90
2023-05-13T01:28:08.482Z,9.00
2023-05-13T01:33:10.949Z,12.80
2023-05-13T01:38:15.520Z,10.40
2023-05-13T01:43:18.004Z,11.70
2023-05-13T01:48:19.800Z,8.90
2023-05-13T01:53:21.758Z,12.10
2023-05-13T01:58:23.544Z,11.20
2023-05-13T02:03:25.557Z,16.40
2023-05-13T02:08:27.599Z,14.20
2023-05-13T02:13:30.408Z,10.60
2023-05-13T02:18:32.202Z,11.10
2023-05-13T02:23:34.152Z,12.50
2023-05-13T02:28:36.442Z,10.20
2023-05-13T02:33:38.216Z,9.60
2023-05-13T02:38:40.193Z,12.70
2023-05-13T02:43:42.171Z,11.70
2023-05-13T02:48:43.949Z,10.20
2023-05-13T02:53:45.729Z,8.00
2023-05-13T02:58:47.514Z,10.00
2023-05-13T03:03:49.991Z,9.00
2023-05-13T03:08:51.803Z,12.00
2023-05-13T03:13:53.552Z,11.60
2023-05-13T03:18:55.364Z,13.30
2023-05-13T03:23:57.091Z,13.80
2023-05-13T03:28:58.772Z,15.90
2023-05-13T03:34:00.549Z,46.40
2023-05-13T03:39:02.354Z,82.80
2023-05-13T03:44:04.510Z,52.30
2023-05-13T03:49:06.195Z,34.40
2023-05-13T03:54:07.945Z,20.80
2023-05-13T03:59:09.619Z,17.50
2023-05-13T04:04:11.400Z,13.20
2023-05-13T04:09:13.075Z,12.40
2023-05-13T04:14:14.845Z,16.30
2023-05-13T04:19:16.624Z,16.40
2023-05-13T04:24:18.394Z,17.30
2023-05-13T04:29:20.199Z,14.70
2023-05-13T04:34:21.948Z,12.60
2023-05-13T04:39:23.825Z,11.20
2023-05-13T04:44:25.806Z,9.80
2023-05-13T04:49:27.581Z,11.10
2023-05-13T04:54:30.177Z,8.70
2023-05-13T04:59:32.460Z,17.20
2023-05-13T05:04:34.150Z,11.80
2023-05-13T05:09:36.024Z,10.10
2023-05-13T05:14:38.113Z,12.40
2023-05-13T05:19:40.127Z,10.90
2023-05-13T05:24:42.058Z,12.40
2023-05-13T05:29:44.065Z,10.60
2023-05-13T05:34:45.914Z,12.20
2023-05-13T05:39:47.831Z,10.40
2023-05-13T05:44:49.470Z,7.90
2023-05-13T05:49:51.462Z,9.80
2023-05-13T05:54:53.319Z,9.50
2023-05-13T05:59:55.318Z,10.90
2023-05-13T06:04:57.194Z,7.70
2023-05-13T06:09:58.950Z,10.50
2023-05-13T06:15:01.357Z,6.60
2023-05-13T06:20:04.448Z,9.50
2023-05-13T06:25:06.921Z,8.50
2023-05-13T06:30:09.165Z,7.10
2023-05-13T06:35:11.005Z,8.50
2023-05-13T06:40:13.090Z,7.40
2023-05-13T06:45:15.175Z,7.40
2023-05-13T06:50:17.388Z,6.80
2023-05-13T06:55:19.451Z,10.60
2023-05-13T07:00:21.844Z,10.70
2023-05-13T07:05:23.907Z,6.70
2023-05-13T07:10:25.785Z,5.00
2023-05-13T07:15:28.580Z,6.70
2023-05-13T07:20:31.072Z,5.60
2023-05-13T07:25:33.256Z,7.10
2023-05-13T07:30:35.077Z,6.20
2023-05-13T07:35:37.418Z,7.60
2023-05-13T07:40:39.406Z,8.40
2023-05-13T07:45:41.876Z,6.30
2023-05-13T07:50:45.528Z,4.10
2023-05-13T07:55:47.298Z,4.00
2023-05-13T08:00:49.680Z,4.90
2023-05-13T08:05:51.657Z,4.30
2023-05-13T08:10:53.462Z,5.50
2023-05-13T08:15:55.338Z,6.10
2023-05-13T08:20:57.222Z,4.50
2023-05-13T08:25:59.081Z,6.50
2023-05-13T08:31:03.095Z,6.10
2023-05-13T08:36:05.885Z,7.60
2023-05-13T08:41:08.405Z,7.40
2023-05-13T08:46:12.426Z,5.00
2023-05-13T08:51:14.389Z,4.60
2023-05-13T08:56:16.169Z,3.70
2023-05-13T09:01:18.196Z,3.60
2023-05-13T09:06:20.535Z,3.60
2023-05-13T09:11:22.824Z,5.30
2023-05-13T09:16:26.483Z,4.50
2023-05-13T09:21:33.539Z,5.00
2023-05-13T09:26:36.137Z,5.80
2023-05-13T09:31:37.976Z,8.30
2023-05-13T09:36:41.330Z,5.90
2023-05-13T09:41:43.194Z,3.90
2023-05-13T09:46:45.032Z,3.00
2023-05-13T09:51:46.963Z,5.50
2023-05-13T09:56:48.835Z,4.00
2023-05-13T10:01:51.084Z,4.10
2023-05-13T10:06:54.232Z,5.90
2023-05-13T10:11:58.505Z,4.30
2023-05-13T10:17:01.452Z,4.00
2023-05-13T10:22:04.674Z,11.50
2023-05-13T10:27:07.980Z,7.40
2023-05-13T10:32:12.139Z,8.40
2023-05-13T10:38:01.703Z,4.10
2023-05-13T10:43:22.130Z,3.90
2023-05-13T10:48:24.271Z,7.10
2023-05-13T10:53:31.955Z,5.10
2023-05-13T10:58:38.823Z,6.00
2023-05-13T11:03:42.013Z,8.30
2023-05-13T11:08:47.359Z,5.90
2023-05-13T11:13:59.397Z,7.10
2023-05-13T11:19:18.987Z,4.10
2023-05-13T11:24:22.411Z,4.80
2023-05-13T11:29:35.864Z,4.60
2023-05-13T11:34:49.197Z,6.60
2023-05-13T11:39:50.876Z,5.10
2023-05-13T11:44:54.195Z,4.70
2023-05-13T11:49:56.873Z,4.10
2023-05-13T11:54:58.864Z,4.50
2023-05-13T12:00:06.174Z,4.90
2023-05-13T12:05:10.750Z,9.40
2023-05-13T12:10:13.043Z,5.80
2023-05-13T12:20:24.582Z,9.60
2023-05-13T12:25:46.461Z,3.30
2023-05-13T12:30:51.533Z,6.00
2023-05-13T12:36:17.304Z,7.10
2023-05-13T12:41:19.295Z,8.10
2023-05-13T12:46:21.285Z,4.90
2023-05-13T12:51:24.231Z,6.30
2023-05-13T12:56:26.203Z,3.70
2023-05-13T13:01:28.274Z,3.80
2023-05-13T13:06:32.019Z,4.10
2023-05-13T13:11:33.791Z,5.20
2023-05-13T13:16:35.772Z,3.90
2023-05-13T13:21:37.853Z,5.80
2023-05-13T13:26:40.354Z,5.50
2023-05-13T13:31:42.570Z,5.00
2023-05-13T13:36:44.516Z,3.60
2023-05-13T13:41:46.906Z,5.30
2023-05-13T13:46:49.303Z,4.30
2023-05-13T13:51:52.819Z,4.70
2023-05-13T13:56:54.889Z,4.20
2023-05-13T14:01:56.985Z,8.60
2023-05-13T14:06:59.368Z,8.00
2023-05-13T14:12:01.268Z,5.90
2023-05-13T14:17:03.420Z,5.10
2023-05-13T14:22:05.402Z,6.70
2023-05-13T14:27:07.280Z,7.70
2023-05-13T14:32:08.962Z,6.20
2023-05-13T14:37:11.133Z,8.90
2023-05-13T14:42:13.132Z,23.90
2023-05-13T14:47:15.521Z,4.20
2023-05-13T14:52:17.273Z,10.40
2023-05-13T14:57:19.571Z,6.40
2023-05-13T15:02:21.406Z,6.90
2023-05-13T15:07:23.422Z,6.70
2023-05-13T15:12:25.929Z,6.60
2023-05-13T15:17:29.577Z,4.50
2023-05-13T15:22:33.337Z,8.50
2023-05-13T15:27:36.211Z,5.20
2023-05-13T15:32:38.391Z,8.10
2023-05-13T15:37:42.167Z,6.40
2023-05-13T15:42:47.838Z,6.20
2023-05-13T15:47:50.171Z,9.00
2023-05-13T15:52:54.247Z,5.30
2023-05-13T15:57:56.019Z,7.80
2023-05-13T16:02:57.829Z,5.60
2023-05-13T16:07:59.878Z,8.50
2023-05-13T16:13:02.169Z,5.60
2023-05-13T16:18:04.168Z,2.60
2023-05-13T16:23:06.034Z,4.30
2023-05-13T16:28:08.107Z,5.50
2023-05-13T16:33:11.076Z,6.70
2023-05-13T16:38:13.296Z,7.40
2023-05-13T16:43:15.378Z,5.80
2023-05-13T16:48:17.372Z,7.80
2023-05-13T16:53:21.897Z,6.70
2023-05-13T16:58:23.774Z,11.50
2023-05-13T17:03:25.617Z,5.80
2023-05-13T17:08:27.630Z,7.60
2023-05-13T17:13:29.922Z,5.90
2023-05-13T17:18:31.934Z,8.30
2023-05-13T17:23:33.983Z,4.10
2023-05-13T17:28:37.701Z,4.10
2023-05-13T17:33:39.812Z,5.30
2023-05-13T17:38:41.912Z,6.30
2023-05-13T17:43:43.756Z,4.60
2023-05-13T17:48:45.673Z,10.10
2023-05-13T17:53:48.016Z,46.00
2023-05-13T17:58:49.786Z,21.30
2023-05-13T18:03:51.670Z,7.80
2023-05-13T18:08:53.857Z,7.90
2023-05-13T18:13:55.834Z,3.80
2023-05-13T18:18:57.858Z,7.00
2023-05-13T18:24:00.182Z,6.00
2023-05-13T18:29:02.521Z,12.90
2023-05-13T18:34:04.369Z,7.30
2023-05-13T18:39:07.779Z,6.10
2023-05-13T18:44:09.655Z,6.80
2023-05-13T18:49:11.760Z,8.10
2023-05-13T18:54:13.621Z,5.50
2023-05-13T18:59:15.902Z,5.60
2023-05-13T19:04:18.032Z,5.80
2023-05-13T19:09:21.320Z,10.50
2023-05-13T19:14:23.214Z,11.40
2023-05-13T19:19:25.473Z,16.30
2023-05-13T19:24:27.439Z,11.40
2023-05-13T19:29:29.314Z,23.10
2023-05-13T19:34:31.605Z,9.20
2023-05-13T19:39:33.392Z,14.70
2023-05-13T19:44:36.176Z,14.70
2023-05-13T19:49:38.187Z,8.00
2023-05-13T19:54:40.249Z,7.10
2023-05-13T19:59:42.039Z,7.90
2023-05-13T20:04:43.997Z,12.00
2023-05-13T20:09:46.074Z,10.40
2023-05-13T20:15:00.038Z,15.30
2023-05-13T20:20:02.135Z,10.20
2023-05-13T20:25:05.248Z,11.90
2023-05-13T20:30:08.488Z,11.40
2023-05-13T20:35:10.316Z,9.40
2023-05-13T20:40:12.611Z,11.00
2023-05-13T20:45:14.591Z,7.80
2023-05-13T20:50:16.476Z,8.30
2023-05-13T20:55:20.084Z,12.50
2023-05-13T21:00:22.461Z,10.20
2023-05-13T21:05:24.830Z,7.60
2023-05-13T21:10:27.046Z,10.30
2023-05-13T21:15:29.549Z,14.80
2023-05-13T21:20:32.341Z,15.80
2023-05-13T21:25:34.320Z,15.00
2023-05-13T21:30:36.295Z,11.70
2023-05-13T21:35:38.069Z,9.90
2023-05-13T21:40:40.152Z,8.40
2023-05-13T21:45:42.239Z,10.00
2023-05-13T21:50:44.120Z,8.70
2023-05-13T21:55:45.894Z,10.30
2023-05-13T22:00:47.908Z,10.60
2023-05-13T22:05:49.756Z,10.90
2023-05-13T22:10:51.758Z,12.10
2023-05-13T22:15:53.958Z,10.60
2023-05-13T22:20:55.988Z,11.60
2023-05-13T22:25:57.783Z,12.90
2023-05-13T22:31:00.263Z,13.80
2023-05-13T22:36:02.163Z,10.80
2023-05-13T22:41:04.317Z,9.80
2023-05-13T22:46:06.122Z,12.50
2023-05-13T22:51:08.395Z,14.20
2023-05-13T22:56:10.683Z,13.60
2023-05-13T23:01:13.048Z,13.00
2023-05-13T23:06:15.044Z,13.10
2023-05-13T23:11:17.117Z,13.40
2023-05-13T23:16:19.498Z,12.00
2023-05-13T23:21:21.490Z,12.30
2023-05-13T23:26:24.399Z,12.20
2023-05-13T23:31:26.967Z,16.90
2023-05-13T23:36:28.960Z,12.40
2023-05-13T23:41:30.658Z,18.10
2023-05-13T23:46:32.430Z,28.90
2023-05-13T23:51:34.182Z,23.90
2023-05-13T23:56:35.987Z,18.70
